LOG55JF EGPL-EGPR

Flight info

Callsign LOG55JF
Flight time 0h 15m
Altitude 2000
Route BEN
Aircraft DHC6/L-SDFGHRWY/L

Departure

Time 2026-05-06 14:13
Airport Benbecula Airport (EGPL)

Arrival

Time 2026-05-06 14:28
Airport Barra Airport (EGPR)
Time Latitude Longitude Altitude Speed Heading
2026-05-06 14:08 57.47531 -7.36873 24 ft 0 kts 92°
2026-05-06 14:10 57.47531 -7.36872 24 ft 0 kts 92°
2026-05-06 14:11 57.47514 -7.36839 24 ft 7 kts 172°
2026-05-06 14:11 57.47480 -7.36904 24 ft 11 kts 283°
2026-05-06 14:11 57.47500 -7.37097 24 ft 15 kts 297°
2026-05-06 14:12 57.47590 -7.37199 24 ft 11 kts 333°
2026-05-06 14:12 57.47655 -7.37249 24 ft 12 kts
2026-05-06 14:12 57.47753 -7.37043 24 ft 57 kts 58°
2026-05-06 14:12 57.48119 -7.36040 198 ft 104 kts 59°
2026-05-06 14:13 57.48556 -7.34940 605 ft 105 kts 58°
2026-05-06 14:13 57.49001 -7.33883 984 ft 107 kts 57°
2026-05-06 14:13 57.49345 -7.32616 1313 ft 111 kts 78°
2026-05-06 14:13 57.49423 -7.31184 1650 ft 115 kts 90°
2026-05-06 14:14 57.49487 -7.29649 1898 ft 124 kts 90°
2026-05-06 14:14 57.49484 -7.27961 1992 ft 136 kts 102°
2026-05-06 14:14 57.49185 -7.26227 2032 ft 146 kts 116°
2026-05-06 14:14 57.48538 -7.24761 2024 ft 149 kts 140°
2026-05-06 14:15 57.47636 -7.23785 2020 ft 151 kts 156°
2026-05-06 14:15 57.46619 -7.23253 2011 ft 153 kts 169°
2026-05-06 14:15 57.45569 -7.22929 2005 ft 153 kts 170°
2026-05-06 14:15 57.44526 -7.22628 1999 ft 152 kts 171°
2026-05-06 14:16 57.43481 -7.22364 1999 ft 151 kts 174°
2026-05-06 14:16 57.42435 -7.22578 2007 ft 151 kts 189°
2026-05-06 14:16 57.41393 -7.22725 2007 ft 150 kts 178°
2026-05-06 14:16 57.40351 -7.22598 2006 ft 151 kts 174°
2026-05-06 14:17 57.39306 -7.22409 2003 ft 151 kts 173°
2026-05-06 14:17 57.38259 -7.22207 2000 ft 151 kts 173°
2026-05-06 14:17 57.37214 -7.22007 1999 ft 151 kts 173°
2026-05-06 14:17 57.36168 -7.21809 2001 ft 151 kts 173°
2026-05-06 14:18 57.35126 -7.21618 2000 ft 151 kts 173°
2026-05-06 14:18 57.34079 -7.21435 2000 ft 151 kts 174°
2026-05-06 14:18 57.33032 -7.21291 2002 ft 151 kts 176°
2026-05-06 14:18 57.31981 -7.21206 2001 ft 151 kts 177°
2026-05-06 14:19 57.30932 -7.21208 2002 ft 151 kts 179°
2026-05-06 14:19 57.29880 -7.21223 2000 ft 151 kts 179°
2026-05-06 14:19 57.28826 -7.21243 2000 ft 151 kts 179°
2026-05-06 14:19 57.27772 -7.21270 1999 ft 151 kts 180°
2026-05-06 14:20 57.26724 -7.21302 2001 ft 151 kts 180°
2026-05-06 14:20 57.25670 -7.21342 2001 ft 151 kts 180°
2026-05-06 14:20 57.24619 -7.21389 2000 ft 151 kts 180°
2026-05-06 14:20 57.23565 -7.21443 2000 ft 151 kts 180°
2026-05-06 14:21 57.22514 -7.21502 2001 ft 151 kts 180°
2026-05-06 14:21 57.21464 -7.21570 2000 ft 151 kts 181°
2026-05-06 14:21 57.20410 -7.21643 2000 ft 151 kts 181°
2026-05-06 14:21 57.19361 -7.21723 2000 ft 151 kts 181°
2026-05-06 14:22 57.18310 -7.21811 2000 ft 152 kts 181°
2026-05-06 14:22 57.17257 -7.21904 2001 ft 151 kts 181°
2026-05-06 14:22 57.16205 -7.22002 2000 ft 152 kts 181°
2026-05-06 14:22 57.15154 -7.22107 2001 ft 152 kts 182°
2026-05-06 14:23 57.14101 -7.22219 2000 ft 152 kts 182°
2026-05-06 14:23 57.13048 -7.22341 2000 ft 152 kts 183°
2026-05-06 14:23 57.12002 -7.22626 2001 ft 152 kts 188°
2026-05-06 14:23 57.10971 -7.23042 2000 ft 153 kts 193°
2026-05-06 14:24 57.09992 -7.23787 2005 ft 153 kts 205°
2026-05-06 14:24 57.09066 -7.24773 2005 ft 154 kts 209°
2026-05-06 14:24 57.08161 -7.25828 2001 ft 154 kts 210°
2026-05-06 14:24 57.07263 -7.26904 1999 ft 155 kts 211°
2026-05-06 14:25 57.06419 -7.28004 1812 ft 143 kts 216°
2026-05-06 14:25 57.05854 -7.29455 1555 ft 138 kts 239°
2026-05-06 14:25 57.05438 -7.31001 1303 ft 133 kts 240°
2026-05-06 14:25 57.05093 -7.32547 1098 ft 128 kts 248°
2026-05-06 14:26 57.04880 -7.33934 1082 ft 88 kts 249°
2026-05-06 14:26 57.04667 -7.35035 905 ft 93 kts 242°
2026-05-06 14:26 57.04427 -7.36132 796 ft 93 kts 243°
2026-05-06 14:26 57.04185 -7.37225 720 ft 92 kts 242°
2026-05-06 14:27 57.03939 -7.38295 628 ft 91 kts 242°
2026-05-06 14:27 57.03692 -7.39366 505 ft 92 kts 240°
2026-05-06 14:27 57.03438 -7.40419 434 ft 88 kts 240°
2026-05-06 14:27 57.03203 -7.41454 337 ft 87 kts 243°
2026-05-06 14:28 57.02968 -7.42503 168 ft 91 kts 242°
2026-05-06 14:28 57.02748 -7.43489 22 ft 79 kts 241°
2026-05-06 14:28 57.02569 -7.44264 5 ft 41 kts 243°
2026-05-06 14:28 57.02503 -7.44550 5 ft 11 kts 251°
2026-05-06 14:29 57.02515 -7.44730 5 ft 12 kts 303°
2026-05-06 14:29 57.02528 -7.44833 5 ft 8 kts 303°
2026-05-06 14:29 57.02555 -7.44853 5 ft 0 kts 58°